sensor_id;sensor_type;location;lat;lon;timestamp;P1;durP1;ratioP1;P2;durP2;ratioP2
2313;SDS011;42279;51.388;7.000;2023-07-02T00:01:29;4.00;;;3.90;;
2313;SDS011;42279;51.388;7.000;2023-07-02T00:03:54;4.10;;;3.83;;
2313;SDS011;42279;51.388;7.000;2023-07-02T00:06:20;4.07;;;4.00;;
2313;SDS011;42279;51.388;7.000;2023-07-02T00:08:46;3.77;;;3.60;;
2313;SDS011;42279;51.388;7.000;2023-07-02T00:11:11;4.97;;;4.70;;
2313;SDS011;42279;51.388;7.000;2023-07-02T00:13:38;4.57;;;4.17;;
2313;SDS011;42279;51.388;7.000;2023-07-02T00:16:04;3.90;;;3.70;;
2313;SDS011;42279;51.388;7.000;2023-07-02T00:18:30;6.43;;;4.80;;
2313;SDS011;42279;51.388;7.000;2023-07-02T00:20:59;4.67;;;4.30;;
2313;SDS011;42279;51.388;7.000;2023-07-02T00:23:27;4.40;;;4.20;;
2313;SDS011;42279;51.388;7.000;2023-07-02T00:25:53;5.30;;;4.80;;
2313;SDS011;42279;51.388;7.000;2023-07-02T00:28:19;4.27;;;3.97;;
2313;SDS011;42279;51.388;7.000;2023-07-02T00:30:44;4.50;;;4.33;;
2313;SDS011;42279;51.388;7.000;2023-07-02T00:33:10;4.87;;;4.50;;
2313;SDS011;42279;51.388;7.000;2023-07-02T00:35:35;4.93;;;4.80;;
2313;SDS011;42279;51.388;7.000;2023-07-02T00:38:02;4.40;;;4.20;;
2313;SDS011;42279;51.388;7.000;2023-07-02T00:40:28;4.30;;;4.00;;
2313;SDS011;42279;51.388;7.000;2023-07-02T00:42:53;4.50;;;4.30;;
2313;SDS011;42279;51.388;7.000;2023-07-02T00:45:19;4.30;;;4.10;;
2313;SDS011;42279;51.388;7.000;2023-07-02T00:47:44;4.83;;;4.50;;
2313;SDS011;42279;51.388;7.000;2023-07-02T00:50:10;9.03;;;4.87;;
2313;SDS011;42279;51.388;7.000;2023-07-02T00:52:36;4.93;;;4.63;;
2313;SDS011;42279;51.388;7.000;2023-07-02T00:55:03;4.40;;;4.20;;
2313;SDS011;42279;51.388;7.000;2023-07-02T00:57:29;4.63;;;4.27;;
2313;SDS011;42279;51.388;7.000;2023-07-02T00:59:56;4.80;;;4.50;;
2313;SDS011;42279;51.388;7.000;2023-07-02T01:02:25;4.23;;;4.03;;
2313;SDS011;42279;51.388;7.000;2023-07-02T01:04:54;4.70;;;4.50;;
2313;SDS011;42279;51.388;7.000;2023-07-02T01:07:23;4.73;;;4.20;;
2313;SDS011;42279;51.388;7.000;2023-07-02T01:09:49;4.40;;;4.30;;
2313;SDS011;42279;51.388;7.000;2023-07-02T01:12:15;5.10;;;4.70;;
2313;SDS011;42279;51.388;7.000;2023-07-02T01:14:43;4.93;;;4.63;;
2313;SDS011;42279;51.388;7.000;2023-07-02T01:17:12;4.97;;;4.77;;
2313;SDS011;42279;51.388;7.000;2023-07-02T01:19:50;6.40;;;5.00;;
2313;SDS011;42279;51.388;7.000;2023-07-02T01:22:20;13.30;;;5.37;;
2313;SDS011;42279;51.388;7.000;2023-07-02T01:24:49;5.43;;;4.90;;
2313;SDS011;42279;51.388;7.000;2023-07-02T01:27:16;5.47;;;5.07;;
2313;SDS011;42279;51.388;7.000;2023-07-02T01:29:42;5.60;;;5.10;;
2313;SDS011;42279;51.388;7.000;2023-07-02T01:32:11;5.47;;;4.97;;
2313;SDS011;42279;51.388;7.000;2023-07-02T01:34:37;5.73;;;5.20;;
2313;SDS011;42279;51.388;7.000;2023-07-02T01:37:04;5.47;;;5.07;;
2313;SDS011;42279;51.388;7.000;2023-07-02T01:39:30;8.00;;;5.30;;
2313;SDS011;42279;51.388;7.000;2023-07-02T01:42:07;5.83;;;5.27;;
2313;SDS011;42279;51.388;7.000;2023-07-02T01:44:34;6.67;;;5.97;;
2313;SDS011;42279;51.388;7.000;2023-07-02T01:47:00;9.07;;;5.80;;
2313;SDS011;42279;51.388;7.000;2023-07-02T01:49:26;7.37;;;6.67;;
2313;SDS011;42279;51.388;7.000;2023-07-02T01:51:52;12.80;;;6.77;;
2313;SDS011;42279;51.388;7.000;2023-07-02T01:54:19;8.20;;;5.40;;
2313;SDS011;42279;51.388;7.000;2023-07-02T01:56:46;5.93;;;5.43;;
2313;SDS011;42279;51.388;7.000;2023-07-02T01:59:14;6.33;;;5.50;;
2313;SDS011;42279;51.388;7.000;2023-07-02T02:01:41;8.03;;;6.00;;
2313;SDS011;42279;51.388;7.000;2023-07-02T02:04:08;7.40;;;6.30;;
2313;SDS011;42279;51.388;7.000;2023-07-02T02:06:34;7.53;;;6.40;;
2313;SDS011;42279;51.388;7.000;2023-07-02T02:09:00;6.80;;;6.30;;
2313;SDS011;42279;51.388;7.000;2023-07-02T02:11:37;7.47;;;6.77;;
2313;SDS011;42279;51.388;7.000;2023-07-02T02:14:12;7.90;;;7.07;;
2313;SDS011;42279;51.388;7.000;2023-07-02T02:16:37;8.80;;;6.50;;
2313;SDS011;42279;51.388;7.000;2023-07-02T02:19:03;9.60;;;7.47;;
2313;SDS011;42279;51.388;7.000;2023-07-02T02:21:30;7.87;;;7.10;;
2313;SDS011;42279;51.388;7.000;2023-07-02T02:23:55;11.90;;;7.63;;
2313;SDS011;42279;51.388;7.000;2023-07-02T02:26:22;15.50;;;8.20;;
2313;SDS011;42279;51.388;7.000;2023-07-02T02:28:48;10.40;;;8.60;;
2313;SDS011;42279;51.388;7.000;2023-07-02T02:31:14;9.30;;;7.77;;
2313;SDS011;42279;51.388;7.000;2023-07-02T02:33:40;12.37;;;9.00;;
2313;SDS011;42279;51.388;7.000;2023-07-02T02:36:06;9.47;;;8.00;;
2313;SDS011;42279;51.388;7.000;2023-07-02T02:38:32;14.33;;;8.90;;
2313;SDS011;42279;51.388;7.000;2023-07-02T02:40:59;14.43;;;8.90;;
2313;SDS011;42279;51.388;7.000;2023-07-02T02:43:25;9.53;;;8.40;;
2313;SDS011;42279;51.388;7.000;2023-07-02T02:45:51;10.63;;;7.83;;
2313;SDS011;42279;51.388;7.000;2023-07-02T02:48:16;10.10;;;8.77;;
2313;SDS011;42279;51.388;7.000;2023-07-02T02:50:42;11.20;;;8.90;;
2313;SDS011;42279;51.388;7.000;2023-07-02T02:53:08;10.33;;;9.33;;
2313;SDS011;42279;51.388;7.000;2023-07-02T02:55:35;9.63;;;8.40;;
2313;SDS011;42279;51.388;7.000;2023-07-02T02:58:01;12.67;;;8.90;;
2313;SDS011;42279;51.388;7.000;2023-07-02T03:00:26;13.60;;;10.00;;
2313;SDS011;42279;51.388;7.000;2023-07-02T03:02:52;10.03;;;8.90;;
2313;SDS011;42279;51.388;7.000;2023-07-02T03:05:18;11.73;;;9.07;;
2313;SDS011;42279;51.388;7.000;2023-07-02T03:07:43;15.17;;;8.90;;
2313;SDS011;42279;51.388;7.000;2023-07-02T03:10:09;15.03;;;9.33;;
2313;SDS011;42279;51.388;7.000;2023-07-02T03:12:34;11.50;;;10.40;;
2313;SDS011;42279;51.388;7.000;2023-07-02T03:15:02;14.93;;;10.57;;
2313;SDS011;42279;51.388;7.000;2023-07-02T03:17:28;11.23;;;10.00;;
2313;SDS011;42279;51.388;7.000;2023-07-02T03:19:53;17.87;;;11.30;;
2313;SDS011;42279;51.388;7.000;2023-07-02T03:22:19;11.47;;;10.30;;
2313;SDS011;42279;51.388;7.000;2023-07-02T03:24:45;12.47;;;10.97;;
2313;SDS011;42279;51.388;7.000;2023-07-02T03:27:10;10.23;;;9.23;;
2313;SDS011;42279;51.388;7.000;2023-07-02T03:29:36;11.57;;;9.60;;
2313;SDS011;42279;51.388;7.000;2023-07-02T03:32:03;13.00;;;11.33;;
2313;SDS011;42279;51.388;7.000;2023-07-02T03:34:29;13.10;;;11.80;;
2313;SDS011;42279;51.388;7.000;2023-07-02T03:36:55;14.37;;;11.30;;
2313;SDS011;42279;51.388;7.000;2023-07-02T03:39:20;16.93;;;10.50;;
2313;SDS011;42279;51.388;7.000;2023-07-02T03:41:46;14.57;;;11.47;;
2313;SDS011;42279;51.388;7.000;2023-07-02T03:44:12;16.23;;;11.20;;
2313;SDS011;42279;51.388;7.000;2023-07-02T03:46:37;19.13;;;12.10;;
2313;SDS011;42279;51.388;7.000;2023-07-02T03:49:03;13.30;;;10.97;;
2313;SDS011;42279;51.388;7.000;2023-07-02T03:51:29;16.17;;;11.77;;
2313;SDS011;42279;51.388;7.000;2023-07-02T03:53:55;15.20;;;12.00;;
2313;SDS011;42279;51.388;7.000;2023-07-02T03:56:23;19.83;;;12.73;;
2313;SDS011;42279;51.388;7.000;2023-07-02T03:58:48;16.53;;;12.50;;
2313;SDS011;42279;51.388;7.000;2023-07-02T04:01:14;17.03;;;12.20;;
2313;SDS011;42279;51.388;7.000;2023-07-02T04:03:42;15.97;;;12.03;;
2313;SDS011;42279;51.388;7.000;2023-07-02T04:06:13;13.67;;;11.93;;
2313;SDS011;42279;51.388;7.000;2023-07-02T04:08:39;17.13;;;12.83;;
2313;SDS011;42279;51.388;7.000;2023-07-02T04:11:05;18.70;;;11.30;;
2313;SDS011;42279;51.388;7.000;2023-07-02T04:13:30;18.23;;;13.03;;
2313;SDS011;42279;51.388;7.000;2023-07-02T04:15:56;17.33;;;12.37;;
2313;SDS011;42279;51.388;7.000;2023-07-02T04:18:22;15.33;;;12.73;;
2313;SDS011;42279;51.388;7.000;2023-07-02T04:20:47;17.37;;;12.80;;
2313;SDS011;42279;51.388;7.000;2023-07-02T04:23:13;21.03;;;13.00;;
2313;SDS011;42279;51.388;7.000;2023-07-02T04:25:39;15.17;;;13.00;;
2313;SDS011;42279;51.388;7.000;2023-07-02T04:28:04;15.40;;;13.07;;
2313;SDS011;42279;51.388;7.000;2023-07-02T04:30:30;18.10;;;13.90;;
2313;SDS011;42279;51.388;7.000;2023-07-02T04:32:55;19.67;;;13.77;;
2313;SDS011;42279;51.388;7.000;2023-07-02T04:35:21;16.70;;;13.50;;
2313;SDS011;42279;51.388;7.000;2023-07-02T04:37:46;16.27;;;14.57;;
2313;SDS011;42279;51.388;7.000;2023-07-02T04:40:15;19.20;;;13.63;;
2313;SDS011;42279;51.388;7.000;2023-07-02T04:42:41;21.20;;;14.13;;
2313;SDS011;42279;51.388;7.000;2023-07-02T04:45:11;18.13;;;13.77;;
2313;SDS011;42279;51.388;7.000;2023-07-02T04:47:38;20.00;;;14.07;;
2313;SDS011;42279;51.388;7.000;2023-07-02T04:50:04;17.50;;;13.53;;
2313;SDS011;42279;51.388;7.000;2023-07-02T04:52:30;27.07;;;14.50;;
2313;SDS011;42279;51.388;7.000;2023-07-02T04:54:56;18.40;;;13.10;;
2313;SDS011;42279;51.388;7.000;2023-07-02T04:57:22;17.47;;;13.53;;
2313;SDS011;42279;51.388;7.000;2023-07-02T04:59:47;17.70;;;14.67;;
2313;SDS011;42279;51.388;7.000;2023-07-02T05:02:14;16.23;;;13.80;;
2313;SDS011;42279;51.388;7.000;2023-07-02T05:04:39;19.07;;;14.33;;
2313;SDS011;42279;51.388;7.000;2023-07-02T05:07:05;25.13;;;15.27;;
2313;SDS011;42279;51.388;7.000;2023-07-02T05:09:31;20.97;;;15.33;;
2313;SDS011;42279;51.388;7.000;2023-07-02T05:11:59;22.37;;;15.70;;
2313;SDS011;42279;51.388;7.000;2023-07-02T05:14:24;22.67;;;16.00;;
2313;SDS011;42279;51.388;7.000;2023-07-02T05:16:50;19.57;;;14.97;;
2313;SDS011;42279;51.388;7.000;2023-07-02T05:19:15;27.77;;;15.00;;
2313;SDS011;42279;51.388;7.000;2023-07-02T05:21:41;23.50;;;16.73;;
2313;SDS011;42279;51.388;7.000;2023-07-02T05:24:07;21.13;;;16.10;;
2313;SDS011;42279;51.388;7.000;2023-07-02T05:26:33;18.43;;;15.60;;
2313;SDS011;42279;51.388;7.000;2023-07-02T05:28:59;20.33;;;15.60;;
2313;SDS011;42279;51.388;7.000;2023-07-02T05:31:25;21.27;;;15.17;;
2313;SDS011;42279;51.388;7.000;2023-07-02T05:33:51;23.80;;;17.10;;
2313;SDS011;42279;51.388;7.000;2023-07-02T05:36:16;22.73;;;16.20;;
2313;SDS011;42279;51.388;7.000;2023-07-02T05:38:42;23.30;;;16.57;;
2313;SDS011;42279;51.388;7.000;2023-07-02T05:41:08;21.47;;;15.70;;
2313;SDS011;42279;51.388;7.000;2023-07-02T05:43:33;20.17;;;16.97;;
2313;SDS011;42279;51.388;7.000;2023-07-02T05:45:59;22.93;;;16.10;;
2313;SDS011;42279;51.388;7.000;2023-07-02T05:48:27;21.77;;;16.07;;
2313;SDS011;42279;51.388;7.000;2023-07-02T05:50:53;22.30;;;16.20;;
2313;SDS011;42279;51.388;7.000;2023-07-02T05:53:19;23.33;;;17.50;;
2313;SDS011;42279;51.388;7.000;2023-07-02T05:55:45;20.90;;;18.00;;
2313;SDS011;42279;51.388;7.000;2023-07-02T05:58:12;25.23;;;18.03;;
2313;SDS011;42279;51.388;7.000;2023-07-02T06:00:37;20.50;;;16.73;;
2313;SDS011;42279;51.388;7.000;2023-07-02T06:03:04;24.93;;;17.10;;
2313;SDS011;42279;51.388;7.000;2023-07-02T06:05:30;23.23;;;16.97;;
2313;SDS011;42279;51.388;7.000;2023-07-02T06:07:55;26.23;;;18.53;;
2313;SDS011;42279;51.388;7.000;2023-07-02T06:10:21;27.53;;;19.63;;
2313;SDS011;42279;51.388;7.000;2023-07-02T06:12:46;19.40;;;16.77;;
2313;SDS011;42279;51.388;7.000;2023-07-02T06:15:12;22.40;;;17.03;;
2313;SDS011;42279;51.388;7.000;2023-07-02T06:17:37;26.37;;;17.20;;
2313;SDS011;42279;51.388;7.000;2023-07-02T06:20:03;22.43;;;16.70;;
2313;SDS011;42279;51.388;7.000;2023-07-02T06:22:29;20.73;;;17.57;;
2313;SDS011;42279;51.388;7.000;2023-07-02T06:24:55;20.07;;;16.07;;
2313;SDS011;42279;51.388;7.000;2023-07-02T06:27:21;22.63;;;17.53;;
2313;SDS011;42279;51.388;7.000;2023-07-02T06:29:46;22.77;;;16.20;;
2313;SDS011;42279;51.388;7.000;2023-07-02T06:32:12;23.17;;;16.40;;
2313;SDS011;42279;51.388;7.000;2023-07-02T06:34:38;24.23;;;17.47;;
2313;SDS011;42279;51.388;7.000;2023-07-02T06:37:04;22.93;;;17.47;;
2313;SDS011;42279;51.388;7.000;2023-07-02T06:39:30;22.10;;;16.97;;
2313;SDS011;42279;51.388;7.000;2023-07-02T06:41:55;21.37;;;16.63;;
2313;SDS011;42279;51.388;7.000;2023-07-02T06:44:21;20.63;;;16.63;;
2313;SDS011;42279;51.388;7.000;2023-07-02T06:46:46;17.13;;;15.00;;
2313;SDS011;42279;51.388;7.000;2023-07-02T06:49:12;19.73;;;14.70;;
2313;SDS011;42279;51.388;7.000;2023-07-02T06:51:37;15.27;;;13.53;;
2313;SDS011;42279;51.388;7.000;2023-07-02T06:54:03;22.17;;;17.03;;
2313;SDS011;42279;51.388;7.000;2023-07-02T06:56:28;24.73;;;16.07;;
2313;SDS011;42279;51.388;7.000;2023-07-02T06:58:54;20.17;;;15.67;;
2313;SDS011;42279;51.388;7.000;2023-07-02T07:01:20;18.40;;;15.23;;
2313;SDS011;42279;51.388;7.000;2023-07-02T07:03:45;18.53;;;15.00;;
2313;SDS011;42279;51.388;7.000;2023-07-02T07:06:11;16.83;;;15.23;;
2313;SDS011;42279;51.388;7.000;2023-07-02T07:08:37;16.50;;;14.80;;
2313;SDS011;42279;51.388;7.000;2023-07-02T07:11:06;18.70;;;14.30;;
2313;SDS011;42279;51.388;7.000;2023-07-02T07:13:32;18.90;;;15.33;;
2313;SDS011;42279;51.388;7.000;2023-07-02T07:15:57;16.07;;;13.73;;
2313;SDS011;42279;51.388;7.000;2023-07-02T07:18:23;14.80;;;13.40;;
2313;SDS011;42279;51.388;7.000;2023-07-02T07:20:49;17.17;;;15.37;;
2313;SDS011;42279;51.388;7.000;2023-07-02T07:23:15;16.93;;;15.13;;
2313;SDS011;42279;51.388;7.000;2023-07-02T07:25:42;17.37;;;13.97;;
2313;SDS011;42279;51.388;7.000;2023-07-02T07:28:08;16.23;;;14.53;;
2313;SDS011;42279;51.388;7.000;2023-07-02T07:30:36;19.33;;;14.80;;
2313;SDS011;42279;51.388;7.000;2023-07-02T07:33:02;18.60;;;12.97;;
2313;SDS011;42279;51.388;7.000;2023-07-02T07:35:28;17.90;;;13.10;;
2313;SDS011;42279;51.388;7.000;2023-07-02T07:37:53;21.93;;;14.93;;
2313;SDS011;42279;51.388;7.000;2023-07-02T07:40:19;16.07;;;12.80;;
2313;SDS011;42279;51.388;7.000;2023-07-02T07:42:44;18.83;;;14.40;;
2313;SDS011;42279;51.388;7.000;2023-07-02T07:45:10;14.77;;;12.80;;
2313;SDS011;42279;51.388;7.000;2023-07-02T07:47:36;15.67;;;12.97;;
2313;SDS011;42279;51.388;7.000;2023-07-02T07:50:02;13.07;;;11.00;;
2313;SDS011;42279;51.388;7.000;2023-07-02T07:52:33;12.90;;;11.43;;
2313;SDS011;42279;51.388;7.000;2023-07-02T07:54:59;16.47;;;12.20;;
2313;SDS011;42279;51.388;7.000;2023-07-02T07:57:25;19.20;;;12.57;;
2313;SDS011;42279;51.388;7.000;2023-07-02T07:59:50;16.53;;;11.70;;
2313;SDS011;42279;51.388;7.000;2023-07-02T08:02:16;16.93;;;12.87;;
2313;SDS011;42279;51.388;7.000;2023-07-02T08:04:42;21.47;;;12.80;;
2313;SDS011;42279;51.388;7.000;2023-07-02T08:07:07;17.93;;;13.20;;
2313;SDS011;42279;51.388;7.000;2023-07-02T08:09:34;17.93;;;13.00;;
2313;SDS011;42279;51.388;7.000;2023-07-02T08:12:00;20.30;;;13.57;;
2313;SDS011;42279;51.388;7.000;2023-07-02T08:14:25;16.27;;;12.93;;
2313;SDS011;42279;51.388;7.000;2023-07-02T08:16:51;15.37;;;12.00;;
2313;SDS011;42279;51.388;7.000;2023-07-02T08:19:17;14.53;;;11.90;;
2313;SDS011;42279;51.388;7.000;2023-07-02T08:21:42;14.37;;;12.43;;
2313;SDS011;42279;51.388;7.000;2023-07-02T08:24:08;17.87;;;13.23;;
2313;SDS011;42279;51.388;7.000;2023-07-02T08:26:34;13.60;;;9.50;;
2313;SDS011;42279;51.388;7.000;2023-07-02T08:28:59;12.30;;;10.23;;
2313;SDS011;42279;51.388;7.000;2023-07-02T08:31:25;11.17;;;10.03;;
2313;SDS011;42279;51.388;7.000;2023-07-02T08:33:50;11.00;;;9.90;;
2313;SDS011;42279;51.388;7.000;2023-07-02T08:36:16;10.57;;;9.40;;
2313;SDS011;42279;51.388;7.000;2023-07-02T08:38:41;10.40;;;9.37;;
2313;SDS011;42279;51.388;7.000;2023-07-02T08:41:08;10.60;;;9.50;;
2313;SDS011;42279;51.388;7.000;2023-07-02T08:43:34;12.23;;;9.13;;
2313;SDS011;42279;51.388;7.000;2023-07-02T08:46:01;15.67;;;11.30;;
2313;SDS011;42279;51.388;7.000;2023-07-02T08:48:27;13.03;;;10.07;;
2313;SDS011;42279;51.388;7.000;2023-07-02T08:50:54;11.30;;;10.20;;
2313;SDS011;42279;51.388;7.000;2023-07-02T08:53:21;12.63;;;10.33;;
2313;SDS011;42279;51.388;7.000;2023-07-02T08:55:54;13.80;;;10.50;;
2313;SDS011;42279;51.388;7.000;2023-07-02T08:58:22;12.63;;;10.13;;
2313;SDS011;42279;51.388;7.000;2023-07-02T09:03:49;10.70;;;9.13;;
2313;SDS011;42279;51.388;7.000;2023-07-02T09:06:17;9.93;;;8.93;;
2313;SDS011;42279;51.388;7.000;2023-07-02T09:08:43;10.73;;;8.97;;
2313;SDS011;42279;51.388;7.000;2023-07-02T09:11:09;10.10;;;8.60;;
2313;SDS011;42279;51.388;7.000;2023-07-02T09:16:25;9.43;;;8.50;;
2313;SDS011;42279;51.388;7.000;2023-07-02T09:21:26;13.90;;;9.73;;
2313;SDS011;42279;51.388;7.000;2023-07-02T09:24:13;9.90;;;8.90;;
2313;SDS011;42279;51.388;7.000;2023-07-02T09:26:41;15.73;;;10.67;;
2313;SDS011;42279;51.388;7.000;2023-07-02T09:29:11;16.60;;;9.10;;
2313;SDS011;42279;51.388;7.000;2023-07-02T09:31:44;12.73;;;9.60;;
2313;SDS011;42279;51.388;7.000;2023-07-02T09:34:11;14.60;;;10.40;;
2313;SDS011;42279;51.388;7.000;2023-07-02T09:36:37;11.80;;;9.63;;
2313;SDS011;42279;51.388;7.000;2023-07-02T09:39:06;10.80;;;9.70;;
2313;SDS011;42279;51.388;7.000;2023-07-02T09:41:52;11.60;;;10.40;;
2313;SDS011;42279;51.388;7.000;2023-07-02T09:44:20;9.13;;;8.33;;
2313;SDS011;42279;51.388;7.000;2023-07-02T09:49:24;12.10;;;10.00;;
2313;SDS011;42279;51.388;7.000;2023-07-02T09:51:51;12.30;;;10.27;;
2313;SDS011;42279;51.388;7.000;2023-07-02T09:54:17;10.93;;;9.30;;
2313;SDS011;42279;51.388;7.000;2023-07-02T09:56:45;13.67;;;10.27;;
2313;SDS011;42279;51.388;7.000;2023-07-02T09:59:11;10.90;;;9.80;;
2313;SDS011;42279;51.388;7.000;2023-07-02T10:01:36;12.63;;;10.10;;
2313;SDS011;42279;51.388;7.000;2023-07-02T10:04:12;11.40;;;9.83;;
2313;SDS011;42279;51.388;7.000;2023-07-02T10:06:48;12.87;;;11.30;;
2313;SDS011;42279;51.388;7.000;2023-07-02T10:09:18;12.77;;;10.20;;
2313;SDS011;42279;51.388;7.000;2023-07-02T10:11:45;14.60;;;9.73;;
2313;SDS011;42279;51.388;7.000;2023-07-02T10:14:11;10.83;;;9.83;;
2313;SDS011;42279;51.388;7.000;2023-07-02T10:16:50;12.57;;;9.30;;
2313;SDS011;42279;51.388;7.000;2023-07-02T10:19:19;11.33;;;10.07;;
2313;SDS011;42279;51.388;7.000;2023-07-02T10:21:46;11.57;;;10.47;;
2313;SDS011;42279;51.388;7.000;2023-07-02T10:24:25;14.80;;;10.77;;
2313;SDS011;42279;51.388;7.000;2023-07-02T10:29:24;13.50;;;11.37;;
2313;SDS011;42279;51.388;7.000;2023-07-02T10:31:50;13.33;;;11.57;;
2313;SDS011;42279;51.388;7.000;2023-07-02T10:34:27;18.00;;;11.43;;
2313;SDS011;42279;51.388;7.000;2023-07-02T10:37:00;12.07;;;10.63;;
2313;SDS011;42279;51.388;7.000;2023-07-02T10:39:28;13.97;;;11.20;;
2313;SDS011;42279;51.388;7.000;2023-07-02T10:42:03;13.90;;;10.03;;
2313;SDS011;42279;51.388;7.000;2023-07-02T10:44:33;11.30;;;10.10;;
2313;SDS011;42279;51.388;7.000;2023-07-02T10:47:11;11.10;;;10.00;;
2313;SDS011;42279;51.388;7.000;2023-07-02T10:49:36;12.13;;;10.67;;
2313;SDS011;42279;51.388;7.000;2023-07-02T10:52:02;11.13;;;9.63;;
2313;SDS011;42279;51.388;7.000;2023-07-02T10:54:39;10.00;;;9.13;;
2313;SDS011;42279;51.388;7.000;2023-07-02T10:57:06;8.70;;;7.37;;
2313;SDS011;42279;51.388;7.000;2023-07-02T10:59:32;10.37;;;9.40;;
2313;SDS011;42279;51.388;7.000;2023-07-02T11:01:58;11.27;;;9.07;;
2313;SDS011;42279;51.388;7.000;2023-07-02T11:04:27;10.47;;;9.10;;
2313;SDS011;42279;51.388;7.000;2023-07-02T11:06:53;9.03;;;8.30;;
2313;SDS011;42279;51.388;7.000;2023-07-02T11:09:19;10.43;;;9.13;;
2313;SDS011;42279;51.388;7.000;2023-07-02T11:14:35;9.03;;;8.17;;
2313;SDS011;42279;51.388;7.000;2023-07-02T11:17:05;8.73;;;7.77;;
2313;SDS011;42279;51.388;7.000;2023-07-02T11:19:32;9.47;;;8.03;;
2313;SDS011;42279;51.388;7.000;2023-07-02T11:21:58;9.20;;;8.40;;
2313;SDS011;42279;51.388;7.000;2023-07-02T11:24:32;7.57;;;6.97;;
2313;SDS011;42279;51.388;7.000;2023-07-02T11:26:59;11.07;;;8.17;;
2313;SDS011;42279;51.388;7.000;2023-07-02T11:29:27;8.33;;;7.50;;
2313;SDS011;42279;51.388;7.000;2023-07-02T11:31:53;10.43;;;8.17;;
2313;SDS011;42279;51.388;7.000;2023-07-02T11:34:22;8.23;;;7.43;;
2313;SDS011;42279;51.388;7.000;2023-07-02T11:36:48;9.27;;;8.50;;
2313;SDS011;42279;51.388;7.000;2023-07-02T11:39:15;9.23;;;8.30;;
2313;SDS011;42279;51.388;7.000;2023-07-02T11:41:42;9.27;;;8.40;;
2313;SDS011;42279;51.388;7.000;2023-07-02T11:44:10;12.80;;;8.87;;
2313;SDS011;42279;51.388;7.000;2023-07-02T11:46:36;8.33;;;7.53;;
2313;SDS011;42279;51.388;7.000;2023-07-02T11:49:01;7.30;;;6.80;;
2313;SDS011;42279;51.388;7.000;2023-07-02T11:51:30;7.80;;;7.00;;
2313;SDS011;42279;51.388;7.000;2023-07-02T11:53:56;8.07;;;7.37;;
2313;SDS011;42279;51.388;7.000;2023-07-02T11:56:22;7.00;;;6.40;;
2313;SDS011;42279;51.388;7.000;2023-07-02T11:58:48;7.87;;;7.17;;
2313;SDS011;42279;51.388;7.000;2023-07-02T12:01:14;9.33;;;7.43;;
2313;SDS011;42279;51.388;7.000;2023-07-02T12:03:39;7.43;;;6.83;;
2313;SDS011;42279;51.388;7.000;2023-07-02T12:06:05;10.93;;;7.20;;
2313;SDS011;42279;51.388;7.000;2023-07-02T12:08:30;7.83;;;7.30;;
2313;SDS011;42279;51.388;7.000;2023-07-02T12:10:56;7.73;;;7.10;;
2313;SDS011;42279;51.388;7.000;2023-07-02T12:13:22;8.30;;;7.50;;
2313;SDS011;42279;51.388;7.000;2023-07-02T12:15:47;7.27;;;6.67;;
2313;SDS011;42279;51.388;7.000;2023-07-02T12:18:14;8.73;;;7.70;;
2313;SDS011;42279;51.388;7.000;2023-07-02T12:20:40;7.83;;;7.13;;
2313;SDS011;42279;51.388;7.000;2023-07-02T12:23:05;13.00;;;8.10;;
2313;SDS011;42279;51.388;7.000;2023-07-02T12:25:31;10.90;;;7.10;;
2313;SDS011;42279;51.388;7.000;2023-07-02T12:27:57;8.57;;;7.20;;
2313;SDS011;42279;51.388;7.000;2023-07-02T12:30:22;7.30;;;6.80;;
2313;SDS011;42279;51.388;7.000;2023-07-02T12:32:48;6.73;;;6.10;;
2313;SDS011;42279;51.388;7.000;2023-07-02T12:35:13;8.60;;;7.73;;
2313;SDS011;42279;51.388;7.000;2023-07-02T12:37:46;10.57;;;7.97;;
2313;SDS011;42279;51.388;7.000;2023-07-02T12:40:14;9.03;;;8.13;;
2313;SDS011;42279;51.388;7.000;2023-07-02T12:42:41;8.83;;;7.80;;
2313;SDS011;42279;51.388;7.000;2023-07-02T12:45:07;9.27;;;7.77;;
2313;SDS011;42279;51.388;7.000;2023-07-02T12:47:33;8.80;;;8.10;;
2313;SDS011;42279;51.388;7.000;2023-07-02T12:49:59;10.13;;;8.57;;
2313;SDS011;42279;51.388;7.000;2023-07-02T12:52:25;10.70;;;7.93;;
2313;SDS011;42279;51.388;7.000;2023-07-02T12:54:57;11.23;;;9.13;;
2313;SDS011;42279;51.388;7.000;2023-07-02T12:57:23;8.87;;;8.00;;
2313;SDS011;42279;51.388;7.000;2023-07-02T12:59:49;9.83;;;8.97;;
2313;SDS011;42279;51.388;7.000;2023-07-02T13:02:15;11.47;;;7.83;;
2313;SDS011;42279;51.388;7.000;2023-07-02T13:04:40;8.83;;;8.07;;
2313;SDS011;42279;51.388;7.000;2023-07-02T13:07:06;9.23;;;8.43;;
2313;SDS011;42279;51.388;7.000;2023-07-02T13:09:32;10.03;;;8.93;;
2313;SDS011;42279;51.388;7.000;2023-07-02T13:11:57;10.50;;;9.40;;
2313;SDS011;42279;51.388;7.000;2023-07-02T13:14:23;10.03;;;8.93;;
2313;SDS011;42279;51.388;7.000;2023-07-02T13:16:49;10.03;;;7.40;;
2313;SDS011;42279;51.388;7.000;2023-07-02T13:19:14;8.07;;;7.37;;
2313;SDS011;42279;51.388;7.000;2023-07-02T13:21:40;12.90;;;9.50;;
2313;SDS011;42279;51.388;7.000;2023-07-02T13:24:06;9.80;;;8.90;;
2313;SDS011;42279;51.388;7.000;2023-07-02T13:26:31;11.30;;;10.00;;
2313;SDS011;42279;51.388;7.000;2023-07-02T13:28:57;11.83;;;9.33;;
2313;SDS011;42279;51.388;7.000;2023-07-02T13:31:23;8.30;;;7.47;;
2313;SDS011;42279;51.388;7.000;2023-07-02T13:33:48;10.73;;;9.10;;
2313;SDS011;42279;51.388;7.000;2023-07-02T13:36:15;10.00;;;9.00;;
2313;SDS011;42279;51.388;7.000;2023-07-02T13:38:41;12.13;;;9.07;;
2313;SDS011;42279;51.388;7.000;2023-07-02T13:41:07;11.80;;;9.63;;
2313;SDS011;42279;51.388;7.000;2023-07-02T13:43:36;11.00;;;9.13;;
2313;SDS011;42279;51.388;7.000;2023-07-02T13:46:02;12.37;;;9.27;;
2313;SDS011;42279;51.388;7.000;2023-07-02T13:48:28;11.93;;;10.27;;
2313;SDS011;42279;51.388;7.000;2023-07-02T13:50:53;10.73;;;9.23;;
2313;SDS011;42279;51.388;7.000;2023-07-02T13:53:19;10.07;;;9.07;;
2313;SDS011;42279;51.388;7.000;2023-07-02T13:55:45;9.20;;;8.40;;
2313;SDS011;42279;51.388;7.000;2023-07-02T13:58:11;13.33;;;9.20;;
2313;SDS011;42279;51.388;7.000;2023-07-02T14:00:37;10.03;;;9.07;;
2313;SDS011;42279;51.388;7.000;2023-07-02T14:03:02;9.40;;;8.43;;
2313;SDS011;42279;51.388;7.000;2023-07-02T14:05:29;10.67;;;9.57;;
2313;SDS011;42279;51.388;7.000;2023-07-02T14:07:54;9.43;;;8.63;;
2313;SDS011;42279;51.388;7.000;2023-07-02T14:10:20;12.50;;;9.60;;
2313;SDS011;42279;51.388;7.000;2023-07-02T14:12:46;10.37;;;9.30;;
2313;SDS011;42279;51.388;7.000;2023-07-02T14:15:11;10.53;;;9.43;;
2313;SDS011;42279;51.388;7.000;2023-07-02T14:17:37;8.93;;;8.10;;
2313;SDS011;42279;51.388;7.000;2023-07-02T14:20:03;10.33;;;9.33;;
2313;SDS011;42279;51.388;7.000;2023-07-02T14:22:31;10.73;;;9.63;;
2313;SDS011;42279;51.388;7.000;2023-07-02T14:24:56;11.50;;;10.13;;
2313;SDS011;42279;51.388;7.000;2023-07-02T14:27:22;10.47;;;9.50;;
2313;SDS011;42279;51.388;7.000;2023-07-02T14:29:47;10.67;;;9.30;;
2313;SDS011;42279;51.388;7.000;2023-07-02T14:32:13;12.03;;;9.10;;
2313;SDS011;42279;51.388;7.000;2023-07-02T14:34:39;11.43;;;9.60;;
2313;SDS011;42279;51.388;7.000;2023-07-02T14:37:05;11.37;;;9.57;;
2313;SDS011;42279;51.388;7.000;2023-07-02T14:39:31;11.93;;;9.53;;
2313;SDS011;42279;51.388;7.000;2023-07-02T14:41:57;17.17;;;9.40;;
2313;SDS011;42279;51.388;7.000;2023-07-02T14:44:23;10.53;;;9.20;;
2313;SDS011;42279;51.388;7.000;2023-07-02T14:46:49;12.17;;;9.47;;
2313;SDS011;42279;51.388;7.000;2023-07-02T14:49:15;12.70;;;9.30;;
2313;SDS011;42279;51.388;7.000;2023-07-02T14:51:40;12.00;;;10.00;;
2313;SDS011;42279;51.388;7.000;2023-07-02T14:54:06;9.77;;;8.60;;
2313;SDS011;42279;51.388;7.000;2023-07-02T14:56:33;12.97;;;10.37;;
2313;SDS011;42279;51.388;7.000;2023-07-02T14:59:00;9.87;;;8.10;;